• Join FlightAware (Why Join?)
  • Login
  • US Flag 
07:45PM EDT


 

Airport Tracker/Info


-or-


 

Live Flight TrackerFlight Track Log ✈ GJS3706 ✈ 01-Jul-2013 ✈ KORD - KALB

Flight Track Log - Related Links

Times and Time Zones

All times are in EDT time to prevent confusion due to time zone crossing. See the GJS3706 flight status page for this flight to view local times or setup timezone preferences in your user account.

Time Position Orientation Groundspeed Altitude Reporting Facility
EDT Latitude Longitude Course Direction KTS MPH feet Rate Location/Type
09:39AM 42.0167 -87.8833 66° East 147 169 2,100  Level Chicago TRACON
09:39AM 42.0333 -87.8333 66° East 185 213 3,900 1,500 Climbing Chicago TRACON
09:40AM 42.0500 -87.7500 75° East 242 278 5,000 960 Climbing Chicago TRACON
09:41AM 42.1388 -87.4293 63° Northeast  Level FlightAware Approximate
09:42AM 42.0547 -87.6389 87° East 254 292 6,300  Level Chicago Center
09:43AM 42.2057 -87.2328 66° East  Level FlightAware Approximate
09:43AM 42.0858 -87.5344 68° East 258 297 10,000  Level Chicago Center
09:44AM 42.2516 -87.0951 66° East  Level FlightAware Approximate
09:44AM 42.1208 -87.4461 62° Northeast 269 310 11,800  Level Chicago Center
09:45AM 42.1653 -87.3411 60° Northeast 316 364 12,700 1,140 Climbing Chicago Center
09:46AM 42.1847 -87.2031 79° East 368 423 14,200 1,620 Climbing Chicago Center
09:47AM 42.2017 -87.0644 81° East 376 433 16,100 1,680 Climbing Chicago Center
09:48AM 42.2222 -86.8900 81° East 391 450 17,700 1,440 Climbing Chicago Center
09:49AM 42.2406 -86.7381 81° East 407 468 19,100 1,380 Climbing Chicago Center
09:50AM 42.2569 -86.6042 81° East 416 479 20,600 1,440 Climbing Chicago Center
09:51AM 42.2781 -86.4178 81° East 418 481 22,100 1,140 Climbing Chicago Center
09:52AM 42.2958 -86.2675 81° East 430 495 23,000 900 Climbing Chicago Center
09:53AM 42.3139 -86.1039 81° East 442 509 24,000 840 Climbing Chicago Center
09:54AM 42.3131 -85.9361 90° East 450 518 24,800 720 Climbing Chicago Center
09:55AM 42.3106 -85.7306 91° East 458 527 25,600 720 Climbing Chicago Center
09:56AM 42.3086 -85.5556 91° East 467 537 26,400 840 Climbing Chicago Center
09:57AM 42.3069 -85.3803 91° East 470 541 27,400 960 Climbing Chicago Center
09:58AM 42.3042 -85.2078 91° East 464 534 28,400 960 Climbing Chicago Center
09:59AM 42.3014 -85.0339 91° East 465 535 29,400 1,020 Climbing Chicago Center
10:01AM 42.2972 -84.8250 91° East 466 536 30,600 1,020 Climbing Chicago Center
10:02AM 42.2922 -84.6525 92° East 463 533 31,600 960 Climbing Chicago Center
10:03AM 42.2897 -84.4811 91° East 460 529 32,600 1,020 Climbing Chicago Center
10:03AM 42.3000 -84.3678 83° East 462 532 33,300 1,020 Climbing Cleveland Center
10:04AM 42.3242 -84.1978 79° East 456 525 34,300 960 Climbing Cleveland Center
10:05AM 42.3481 -84.0333 79° East 456 525 35,300 720 Climbing Cleveland Center
10:06AM 42.3717 -83.8661 79° East 456 525 35,800 480 Climbing Cleveland Center
10:07AM 42.3950 -83.6986 79° East 456 525 36,300 600 Climbing Cleveland Center
10:08AM 42.4161 -83.5278 80° East 456 525 37,100 600 Climbing Cleveland Center
10:09AM 42.4203 -83.3706 88° East 456 525 37,600 480 Climbing Cleveland Center
10:10AM 42.4219 -83.2019 89° East 451 519 38,100 480 Climbing Cleveland Center
10:11AM 42.4278 -83.0389 87° East 446 513 38,600 420 Climbing Cleveland Center
10:12AM 42.4333 -82.8703 87° East 441 507 39,000 180 Climbing Cleveland Center
10:13AM 42.4367 -82.6989 88° East 441 507 39,000  Level Cleveland Center
10:14AM 42.4417 -82.5275 88° East 441 507 39,000  Level Cleveland Center
10:16AM 42.4459 -82.3255 88° East  Level FlightAware Approximate
10:17AM 42.4558 -81.9819 88° East 478 550 39,000  Level Cleveland Center
10:18AM 42.4622 -81.7989 87° East 483 556 39,000  Level Cleveland Center
10:19AM 42.4619 -81.6133 90° East 483 556 39,000  Level Cleveland Center
10:20AM 42.4675 -81.4275 88° East 483 556 39,000  Level Cleveland Center
10:21AM 42.4708 -81.2419 89° East 483 556 39,000  Level Cleveland Center
10:22AM 42.4781 -81.0392 87° East 489 563 39,000  Level Cleveland Center
10:23AM 42.4626 -81.2649 88° East  Level FlightAware Approximate
10:23AM 42.4808 -80.8478 89° East 496 571 39,000  Level Cleveland Center
10:24AM 42.4831 -80.6619 89° East 496 571 39,000  Level Cleveland Center
10:25AM 42.4853 -80.4792 89° East 496 571 39,000  Level Cleveland Center
10:26AM 42.4869 -80.2875 89° East 497 572 39,000  Level Cleveland Center
10:27AM 42.4883 -80.1017 89° East 497 572 39,000  Level Cleveland Center
10:28AM 42.4936 -79.9158 88° East 497 572 39,000  Level Cleveland Center
10:29AM 42.4906 -79.7300 91° East 492 566 39,000  Level Cleveland Center
10:30AM 42.4953 -79.5497 88° East 492 566 39,000  Level Cleveland Center
10:31AM 42.4936 -79.3725 91° East 480 552 39,000  Level Cleveland Center
10:32AM 42.4997 -79.1919 87° East 474 545 39,000  Level Cleveland Center
10:33AM 42.5100 -79.0114 86° East 474 545 39,000 -360 Level Cleveland Center
10:34AM 42.5239 -78.8253 84° East 484 557 38,300 -900 Descending Cleveland Center
10:35AM 42.5336 -78.6419 86° East 484 557 37,300 -1,020 Descending Cleveland Center
10:36AM 42.5469 -78.4525 84° East 490 564 36,300 -1,380 Descending Cleveland Center
10:37AM 42.5600 -78.2633 85° East 497 572 34,600 -1,680 Descending Cleveland Center
10:38AM 42.5706 -78.0767 86° East 497 572 33,000 -1,380 Descending Cleveland Center
10:39AM 42.5808 -77.8844 86° East 502 578 31,900 -1,200 Descending Cleveland Center
10:40AM 42.5969 -77.6864 84° East 509 586 30,600 -1,380 Descending Cleveland Center
10:41AM 42.6044 -77.4942 87° East 520 598 29,200 -480 Descending Cleveland Center
10:44AM 42.6292 -77.0181 86° East 505 581 29,000 -60 Descending Boston Center
10:45AM 42.6389 -76.8267 86° East 510 587 29,000  Level Boston Center
10:46AM 42.6481 -76.6381 86° East 510 587 29,000  Level Boston Center
10:47AM 42.6589 -76.4497 85° East 510 587 29,000 -120 Level Boston Center
10:48AM 42.6642 -76.2975 87° East 510 587 28,800 -1,260 Descending Boston Center
10:49AM 42.6758 -76.0694 86° East 504 580 26,500 -2,100 Descending Boston Center
10:50AM 42.6817 -75.8833 87° East 494 568 24,600 -1,980 Descending Boston Center
10:51AM 42.6892 -75.7000 87° East 494 568 22,600 -1,980 Descending Boston Center
10:52AM 42.6686 -75.5436 100° East 483 556 20,700 -1,860 Descending Boston Center
10:53AM 42.6439 -75.3786 101° East 459 528 18,900 -1,740 Descending Boston Center
10:54AM 42.6186 -75.2194 102° East 444 511 17,300 -1,680 Descending Boston Center
10:55AM 42.5933 -75.0603 102° East 432 497 15,600 -1,740 Descending Boston Center
10:56AM 42.5561 -74.8472 103° East 416 479 13,300 -1,680 Descending Boston Center
10:57AM 42.5414 -74.7594 103° East 408 470 12,400 -1,440 Descending Boston Center
10:58AM 42.5150 -74.6119 104° East 396 456 11,000 -780 Descending Boston Center
10:59AM 42.4886 -74.4617 103° East 381 438 10,900 -60 Descending Boston Center
11:00AM 42.4975 -74.3211 85° East 394 453 10,900 -720 Level Boston Center
11:02AM 42.6237 -74.0618 56° Northeast  Level Estimated
11:03AM 42.7075 -74.0733 56° Northeast 302 348 8,200  Level Boston Center
11:04AM 42.7731 -74.0100 35° Northeast 284 327 6,200 -2,280 Descending Boston Center
11:05AM 42.8503 -74.0033 North 272 313 3,700 -1,800 Descending Boston Center
11:06AM 42.8989 -73.9564 35° Northeast 200 230 2,500 -660 Descending Boston Center
11:07AM 42.9183 -73.8889 69° East 161 185 2,400 -240 Descending Boston Center
11:08AM 42.9086 -73.8403 105° East 140 161 2,100 -360 Descending Boston Center